sensor_id;sensor_type;location;lat;lon;timestamp;pressure;altitude;pressure_sealevel;temperature;humidity
49945;BME280;35838;49.134;9.212;2023-06-14T00:01:17;99342.09;;;19.78;67.37
49945;BME280;35838;49.134;9.212;2023-06-14T00:02:52;99340.63;;;19.90;65.94
49945;BME280;35838;49.134;9.212;2023-06-14T00:04:26;99344.50;;;19.83;66.37
49945;BME280;35838;49.134;9.212;2023-06-14T00:06:00;99348.06;;;19.82;65.35
49945;BME280;35838;49.134;9.212;2023-06-14T00:07:34;99339.13;;;19.84;66.06
49945;BME280;35838;49.134;9.212;2023-06-14T00:09:08;99340.09;;;19.83;66.02
49945;BME280;35838;49.134;9.212;2023-06-14T00:10:41;99344.19;;;19.89;66.85
49945;BME280;35838;49.134;9.212;2023-06-14T00:12:14;99339.78;;;19.90;66.74
49945;BME280;35838;49.134;9.212;2023-06-14T00:13:48;99341.66;;;19.87;67.33
49945;BME280;35838;49.134;9.212;2023-06-14T00:15:22;99344.28;;;19.87;66.90
49945;BME280;35838;49.134;9.212;2023-06-14T00:16:56;99342.00;;;19.80;66.97
49945;BME280;35838;49.134;9.212;2023-06-14T00:18:29;99342.97;;;19.79;66.58
49945;BME280;35838;49.134;9.212;2023-06-14T00:20:05;99342.19;;;19.77;66.57
49945;BME280;35838;49.134;9.212;2023-06-14T00:21:40;99346.34;;;19.81;65.28
49945;BME280;35838;49.134;9.212;2023-06-14T00:23:14;99340.47;;;19.76;65.95
49945;BME280;35838;49.134;9.212;2023-06-14T00:24:45;99338.00;;;19.72;66.35
49945;BME280;35838;49.134;9.212;2023-06-14T00:26:19;99343.56;;;19.66;65.42
49945;BME280;35838;49.134;9.212;2023-06-14T00:27:53;99335.34;;;19.72;65.22
49945;BME280;35838;49.134;9.212;2023-06-14T00:29:26;99340.16;;;19.64;66.22
49945;BME280;35838;49.134;9.212;2023-06-14T00:31:00;99342.88;;;19.63;66.09
49945;BME280;35838;49.134;9.212;2023-06-14T00:32:33;99334.53;;;19.54;66.49
49945;BME280;35838;49.134;9.212;2023-06-14T00:34:05;99335.13;;;19.60;66.96
49945;BME280;35838;49.134;9.212;2023-06-14T00:35:40;99341.03;;;19.65;67.98
49945;BME280;35838;49.134;9.212;2023-06-14T00:37:11;99330.72;;;19.60;66.75
49945;BME280;35838;49.134;9.212;2023-06-14T00:38:44;99335.44;;;19.53;66.33
49945;BME280;35838;49.134;9.212;2023-06-14T00:40:18;99337.69;;;19.61;68.17
49945;BME280;35838;49.134;9.212;2023-06-14T00:41:52;99334.66;;;19.51;67.53
49945;BME280;35838;49.134;9.212;2023-06-14T00:43:25;99332.81;;;19.53;66.73
49945;BME280;35838;49.134;9.212;2023-06-14T00:45:02;99331.47;;;19.62;68.06
49945;BME280;35838;49.134;9.212;2023-06-14T00:46:36;99331.56;;;19.61;66.76
49945;BME280;35838;49.134;9.212;2023-06-14T00:48:09;99327.69;;;19.50;66.34
49945;BME280;35838;49.134;9.212;2023-06-14T00:49:41;99330.31;;;19.50;65.47
49945;BME280;35838;49.134;9.212;2023-06-14T00:51:15;99335.06;;;19.44;67.09
49945;BME280;35838;49.134;9.212;2023-06-14T00:52:48;99340.06;;;19.48;66.50
49945;BME280;35838;49.134;9.212;2023-06-14T00:54:22;99334.97;;;19.45;63.84
49945;BME280;35838;49.134;9.212;2023-06-14T00:55:56;99335.88;;;19.26;63.84
49945;BME280;35838;49.134;9.212;2023-06-14T00:57:30;99344.16;;;19.19;65.17
49945;BME280;35838;49.134;9.212;2023-06-14T00:59:01;99339.09;;;19.14;65.97
49945;BME280;35838;49.134;9.212;2023-06-14T01:00:38;99341.28;;;19.23;67.78
49945;BME280;35838;49.134;9.212;2023-06-14T01:02:12;99341.16;;;19.26;69.30
49945;BME280;35838;49.134;9.212;2023-06-14T01:03:45;99336.72;;;19.27;68.48
49945;BME280;35838;49.134;9.212;2023-06-14T01:05:19;99348.78;;;19.14;67.95
49945;BME280;35838;49.134;9.212;2023-06-14T01:06:52;99342.78;;;18.92;70.57
49945;BME280;35838;49.134;9.212;2023-06-14T01:08:36;99346.31;;;18.72;71.76
49945;BME280;35838;49.134;9.212;2023-06-14T01:10:20;99350.38;;;18.79;73.66
49945;BME280;35838;49.134;9.212;2023-06-14T01:12:00;99352.63;;;18.68;72.28
49945;BME280;35838;49.134;9.212;2023-06-14T01:13:35;99348.16;;;18.70;74.59
49945;BME280;35838;49.134;9.212;2023-06-14T01:15:10;99355.53;;;18.81;75.81
49945;BME280;35838;49.134;9.212;2023-06-14T01:16:46;99353.31;;;18.91;76.71
49945;BME280;35838;49.134;9.212;2023-06-14T01:18:23;99353.09;;;18.97;77.17
49945;BME280;35838;49.134;9.212;2023-06-14T01:19:57;99354.00;;;18.96;78.69
49945;BME280;35838;49.134;9.212;2023-06-14T01:21:28;99358.03;;;19.03;80.15
49945;BME280;35838;49.134;9.212;2023-06-14T01:23:10;99352.56;;;19.08;80.52
49945;BME280;35838;49.134;9.212;2023-06-14T01:24:43;99360.38;;;19.09;81.36
49945;BME280;35838;49.134;9.212;2023-06-14T01:26:18;99353.09;;;18.97;80.45
49945;BME280;35838;49.134;9.212;2023-06-14T01:27:52;99354.56;;;19.03;82.07
49945;BME280;35838;49.134;9.212;2023-06-14T01:29:24;99353.88;;;18.99;82.21
49945;BME280;35838;49.134;9.212;2023-06-14T01:31:03;99353.78;;;19.01;83.50
49945;BME280;35838;49.134;9.212;2023-06-14T01:32:37;99362.03;;;18.93;82.84
49945;BME280;35838;49.134;9.212;2023-06-14T01:34:08;99357.56;;;18.95;82.41
49945;BME280;35838;49.134;9.212;2023-06-14T01:35:42;99355.03;;;18.92;82.47
49945;BME280;35838;49.134;9.212;2023-06-14T01:37:16;99357.16;;;18.84;83.89
49945;BME280;35838;49.134;9.212;2023-06-14T01:38:50;99354.25;;;18.71;84.02
49945;BME280;35838;49.134;9.212;2023-06-14T01:40:26;99359.19;;;18.78;84.30
49945;BME280;35838;49.134;9.212;2023-06-14T01:41:58;99356.25;;;18.85;84.04
49945;BME280;35838;49.134;9.212;2023-06-14T01:43:32;99357.25;;;18.82;82.51
49945;BME280;35838;49.134;9.212;2023-06-14T01:45:07;99356.84;;;18.72;82.08
49945;BME280;35838;49.134;9.212;2023-06-14T01:46:42;99351.59;;;18.72;83.92
49945;BME280;35838;49.134;9.212;2023-06-14T01:48:16;99358.69;;;18.70;85.34
49945;BME280;35838;49.134;9.212;2023-06-14T01:49:50;99356.06;;;18.70;85.20
49945;BME280;35838;49.134;9.212;2023-06-14T01:51:24;99357.06;;;18.68;84.94
49945;BME280;35838;49.134;9.212;2023-06-14T01:52:58;99360.22;;;18.74;83.67
49945;BME280;35838;49.134;9.212;2023-06-14T01:54:35;99363.94;;;18.70;84.00
49945;BME280;35838;49.134;9.212;2023-06-14T01:56:12;99366.56;;;18.70;83.09
49945;BME280;35838;49.134;9.212;2023-06-14T01:57:46;99364.78;;;18.71;82.99
49945;BME280;35838;49.134;9.212;2023-06-14T01:59:19;99359.72;;;18.66;82.94
49945;BME280;35838;49.134;9.212;2023-06-14T02:00:53;99364.06;;;18.67;82.82
49945;BME280;35838;49.134;9.212;2023-06-14T02:02:25;99362.34;;;18.66;82.54
49945;BME280;35838;49.134;9.212;2023-06-14T02:03:59;99362.53;;;18.63;82.37
49945;BME280;35838;49.134;9.212;2023-06-14T02:05:33;99365.06;;;18.64;82.03
49945;BME280;35838;49.134;9.212;2023-06-14T02:07:06;99359.22;;;18.58;81.79
49945;BME280;35838;49.134;9.212;2023-06-14T02:08:39;99367.72;;;18.25;83.50
49945;BME280;35838;49.134;9.212;2023-06-14T02:10:14;99370.75;;;18.15;83.46
49945;BME280;35838;49.134;9.212;2023-06-14T02:11:48;99367.00;;;18.21;85.96
49945;BME280;35838;49.134;9.212;2023-06-14T02:13:22;99369.97;;;18.13;86.42
49945;BME280;35838;49.134;9.212;2023-06-14T02:14:56;99374.28;;;18.14;85.36
49945;BME280;35838;49.134;9.212;2023-06-14T02:16:27;99375.78;;;18.01;85.04
49945;BME280;35838;49.134;9.212;2023-06-14T02:18:01;99374.91;;;18.00;86.19
49945;BME280;35838;49.134;9.212;2023-06-14T02:19:35;99380.31;;;17.97;87.55
49945;BME280;35838;49.134;9.212;2023-06-14T02:21:09;99378.47;;;17.77;88.18
49945;BME280;35838;49.134;9.212;2023-06-14T02:22:44;99380.00;;;17.62;88.99
49945;BME280;35838;49.134;9.212;2023-06-14T02:24:15;99380.22;;;17.56;90.14
49945;BME280;35838;49.134;9.212;2023-06-14T02:25:51;99382.13;;;17.52;89.83
49945;BME280;35838;49.134;9.212;2023-06-14T02:27:25;99384.28;;;17.43;90.88
49945;BME280;35838;49.134;9.212;2023-06-14T02:28:58;99379.34;;;17.35;92.55
49945;BME280;35838;49.134;9.212;2023-06-14T02:30:32;99386.94;;;17.41;92.66
49945;BME280;35838;49.134;9.212;2023-06-14T02:32:06;99381.31;;;17.50;93.81
49945;BME280;35838;49.134;9.212;2023-06-14T02:33:38;99377.41;;;17.61;94.00
49945;BME280;35838;49.134;9.212;2023-06-14T02:35:11;99371.25;;;17.62;93.75
49945;BME280;35838;49.134;9.212;2023-06-14T02:36:43;99373.56;;;17.69;93.28
49945;BME280;35838;49.134;9.212;2023-06-14T02:38:18;99373.09;;;17.80;92.32
49945;BME280;35838;49.134;9.212;2023-06-14T02:39:52;99372.25;;;17.80;94.19
49945;BME280;35838;49.134;9.212;2023-06-14T02:41:25;99377.63;;;17.77;93.61
49945;BME280;35838;49.134;9.212;2023-06-14T02:42:59;99383.97;;;17.71;93.79
49945;BME280;35838;49.134;9.212;2023-06-14T02:44:33;99377.63;;;17.77;93.29
49945;BME280;35838;49.134;9.212;2023-06-14T02:46:07;99376.75;;;17.76;92.63
49945;BME280;35838;49.134;9.212;2023-06-14T02:47:41;99378.63;;;17.74;93.34
49945;BME280;35838;49.134;9.212;2023-06-14T02:49:16;99376.97;;;17.72;93.05
49945;BME280;35838;49.134;9.212;2023-06-14T02:50:49;99372.38;;;17.77;92.05
49945;BME280;35838;49.134;9.212;2023-06-14T02:52:23;99372.97;;;17.83;92.25
49945;BME280;35838;49.134;9.212;2023-06-14T02:53:55;99377.16;;;17.88;90.58
49945;BME280;35838;49.134;9.212;2023-06-14T02:55:29;99376.16;;;17.90;90.46
49945;BME280;35838;49.134;9.212;2023-06-14T02:57:03;99376.97;;;17.92;90.60
49945;BME280;35838;49.134;9.212;2023-06-14T02:58:37;99380.31;;;17.97;90.39
49945;BME280;35838;49.134;9.212;2023-06-14T03:00:11;99382.06;;;17.97;90.62
49945;BME280;35838;49.134;9.212;2023-06-14T03:01:43;99386.47;;;17.95;90.63
49945;BME280;35838;49.134;9.212;2023-06-14T03:03:17;99384.91;;;17.91;89.12
49945;BME280;35838;49.134;9.212;2023-06-14T03:04:48;99379.59;;;17.92;88.48
49945;BME280;35838;49.134;9.212;2023-06-14T03:06:22;99381.50;;;17.89;89.47
49945;BME280;35838;49.134;9.212;2023-06-14T03:07:56;99382.59;;;17.83;89.91
49945;BME280;35838;49.134;9.212;2023-06-14T03:09:29;99378.34;;;17.80;90.35
49945;BME280;35838;49.134;9.212;2023-06-14T03:11:03;99383.00;;;17.74;89.71
49945;BME280;35838;49.134;9.212;2023-06-14T03:12:38;99382.41;;;17.67;90.56
49945;BME280;35838;49.134;9.212;2023-06-14T03:14:12;99387.06;;;17.60;92.32
49945;BME280;35838;49.134;9.212;2023-06-14T03:15:48;99384.09;;;17.68;92.42
49945;BME280;35838;49.134;9.212;2023-06-14T03:17:20;99386.88;;;17.65;92.82
49945;BME280;35838;49.134;9.212;2023-06-14T03:18:54;99390.22;;;17.68;93.23
49945;BME280;35838;49.134;9.212;2023-06-14T03:20:28;99382.09;;;17.75;92.00
49945;BME280;35838;49.134;9.212;2023-06-14T03:22:00;99382.59;;;17.83;92.29
49945;BME280;35838;49.134;9.212;2023-06-14T03:23:34;99382.41;;;17.88;92.70
49945;BME280;35838;49.134;9.212;2023-06-14T03:25:08;99385.19;;;17.84;92.42
49945;BME280;35838;49.134;9.212;2023-06-14T03:26:42;99388.56;;;17.86;91.73
49945;BME280;35838;49.134;9.212;2023-06-14T03:28:15;99388.56;;;17.86;91.65
49945;BME280;35838;49.134;9.212;2023-06-14T03:29:49;99385.19;;;17.84;92.17
49945;BME280;35838;49.134;9.212;2023-06-14T03:31:22;99392.00;;;17.89;92.25
49945;BME280;35838;49.134;9.212;2023-06-14T03:32:54;99397.38;;;17.85;92.34
49945;BME280;35838;49.134;9.212;2023-06-14T03:34:28;99391.41;;;17.82;91.73
49945;BME280;35838;49.134;9.212;2023-06-14T03:36:02;99387.84;;;17.83;92.85
49945;BME280;35838;49.134;9.212;2023-06-14T03:37:33;99395.69;;;17.84;93.01
49945;BME280;35838;49.134;9.212;2023-06-14T03:39:07;99396.59;;;17.83;93.35
49945;BME280;35838;49.134;9.212;2023-06-14T03:40:40;99393.59;;;17.93;93.19
49945;BME280;35838;49.134;9.212;2023-06-14T03:42:15;99406.19;;;17.84;93.51
49945;BME280;35838;49.134;9.212;2023-06-14T03:43:51;99402.50;;;17.89;94.21
49945;BME280;35838;49.134;9.212;2023-06-14T03:45:25;99400.66;;;17.91;94.39
49945;BME280;35838;49.134;9.212;2023-06-14T03:46:56;99403.19;;;17.94;94.17
49945;BME280;35838;49.134;9.212;2023-06-14T03:48:29;99408.31;;;17.97;93.90
49945;BME280;35838;49.134;9.212;2023-06-14T03:50:03;99412.72;;;17.95;93.40
49945;BME280;35838;49.134;9.212;2023-06-14T03:51:37;99415.06;;;18.03;93.62
49945;BME280;35838;49.134;9.212;2023-06-14T03:53:08;99416.22;;;17.95;93.76
49945;BME280;35838;49.134;9.212;2023-06-14T03:54:42;99418.50;;;17.82;93.85
49945;BME280;35838;49.134;9.212;2023-06-14T03:56:17;99415.53;;;17.90;93.29
49945;BME280;35838;49.134;9.212;2023-06-14T03:57:48;99418.97;;;17.92;94.04
49945;BME280;35838;49.134;9.212;2023-06-14T03:59:24;99425.09;;;17.93;94.71
49945;BME280;35838;49.134;9.212;2023-06-14T04:00:58;99425.59;;;17.80;93.25
49945;BME280;35838;49.134;9.212;2023-06-14T04:02:31;99421.13;;;17.82;94.83
49945;BME280;35838;49.134;9.212;2023-06-14T04:04:05;99427.03;;;17.88;93.45
49945;BME280;35838;49.134;9.212;2023-06-14T04:05:39;99427.84;;;17.90;93.46
49945;BME280;35838;49.134;9.212;2023-06-14T04:07:13;99423.69;;;17.84;94.65
49945;BME280;35838;49.134;9.212;2023-06-14T04:08:49;99434.13;;;17.85;93.68
49945;BME280;35838;49.134;9.212;2023-06-14T04:10:21;99433.09;;;17.90;94.14
49945;BME280;35838;49.134;9.212;2023-06-14T04:11:54;99438.53;;;17.85;93.60
49945;BME280;35838;49.134;9.212;2023-06-14T04:13:28;99445.38;;;17.89;94.52
49945;BME280;35838;49.134;9.212;2023-06-14T04:15:05;99440.16;;;17.88;94.66
49945;BME280;35838;49.134;9.212;2023-06-14T04:16:39;99441.75;;;17.92;94.67
49945;BME280;35838;49.134;9.212;2023-06-14T04:18:12;99446.13;;;17.91;93.97
49945;BME280;35838;49.134;9.212;2023-06-14T04:19:46;99441.06;;;17.86;93.18
49945;BME280;35838;49.134;9.212;2023-06-14T04:21:21;99448.59;;;17.96;95.67
49945;BME280;35838;49.134;9.212;2023-06-14T04:22:56;99442.94;;;17.84;94.06
49945;BME280;35838;49.134;9.212;2023-06-14T04:24:31;99457.72;;;17.65;94.90
49945;BME280;35838;49.134;9.212;2023-06-14T04:26:05;99458.88;;;17.58;94.71
49945;BME280;35838;49.134;9.212;2023-06-14T04:27:37;99464.91;;;17.60;95.22
49945;BME280;35838;49.134;9.212;2023-06-14T04:29:12;99465.41;;;17.47;96.06
49945;BME280;35838;49.134;9.212;2023-06-14T04:30:47;99461.63;;;17.54;97.31
49945;BME280;35838;49.134;9.212;2023-06-14T04:32:21;99463.44;;;17.52;97.31
49945;BME280;35838;49.134;9.212;2023-06-14T04:33:56;99464.69;;;17.44;96.73
49945;BME280;35838;49.134;9.212;2023-06-14T04:35:30;99466.75;;;17.58;97.88
49945;BME280;35838;49.134;9.212;2023-06-14T04:37:06;99467.50;;;17.61;97.33
49945;BME280;35838;49.134;9.212;2023-06-14T04:38:40;99469.94;;;17.66;97.55
49945;BME280;35838;49.134;9.212;2023-06-14T04:40:15;99467.97;;;17.71;97.64
49945;BME280;35838;49.134;9.212;2023-06-14T04:41:49;99475.03;;;17.69;98.08
49945;BME280;35838;49.134;9.212;2023-06-14T04:43:27;99475.75;;;17.73;96.87
49945;BME280;35838;49.134;9.212;2023-06-14T04:45:02;99472.56;;;17.66;97.06
49945;BME280;35838;49.134;9.212;2023-06-14T04:46:40;99475.59;;;17.55;97.24
49945;BME280;35838;49.134;9.212;2023-06-14T04:48:18;99473.03;;;17.53;97.27
49945;BME280;35838;49.134;9.212;2023-06-14T04:49:51;99477.06;;;17.62;97.35
49945;BME280;35838;49.134;9.212;2023-06-14T04:51:25;99479.50;;;17.67;99.02
49945;BME280;35838;49.134;9.212;2023-06-14T04:53:00;99494.31;;;17.68;98.46
49945;BME280;35838;49.134;9.212;2023-06-14T04:54:33;99489.94;;;17.68;98.38
49945;BME280;35838;49.134;9.212;2023-06-14T04:56:07;99484.50;;;17.73;98.81
49945;BME280;35838;49.134;9.212;2023-06-14T04:57:41;99494.19;;;17.71;98.58
49945;BME280;35838;49.134;9.212;2023-06-14T04:59:15;99481.53;;;17.60;98.24
49945;BME280;35838;49.134;9.212;2023-06-14T05:00:49;99486.63;;;17.63;98.44
49945;BME280;35838;49.134;9.212;2023-06-14T05:02:25;99493.53;;;17.66;99.10
49945;BME280;35838;49.134;9.212;2023-06-14T05:04:01;99488.28;;;17.66;99.92
49945;BME280;35838;49.134;9.212;2023-06-14T05:05:34;99487.84;;;17.77;99.60
49945;BME280;35838;49.134;9.212;2023-06-14T05:07:08;99481.69;;;17.78;99.21
49945;BME280;35838;49.134;9.212;2023-06-14T05:08:44;99496.53;;;17.79;100.00
49945;BME280;35838;49.134;9.212;2023-06-14T05:10:18;99493.00;;;17.80;98.34
49945;BME280;35838;49.134;9.212;2023-06-14T05:11:49;99484.06;;;17.84;98.62
49945;BME280;35838;49.134;9.212;2023-06-14T05:13:23;99490.91;;;17.88;99.07
49945;BME280;35838;49.134;9.212;2023-06-14T05:14:58;99490.03;;;17.65;98.37
49945;BME280;35838;49.134;9.212;2023-06-14T05:16:32;99495.84;;;17.74;99.43
49945;BME280;35838;49.134;9.212;2023-06-14T05:18:08;99492.91;;;17.81;100.00
49945;BME280;35838;49.134;9.212;2023-06-14T05:19:41;99496.72;;;17.74;98.98
49945;BME280;35838;49.134;9.212;2023-06-14T05:21:12;99486.75;;;17.82;100.00
49945;BME280;35838;49.134;9.212;2023-06-14T05:22:47;99488.94;;;17.93;98.68
49945;BME280;35838;49.134;9.212;2023-06-14T05:24:22;99493.19;;;17.97;98.90
49945;BME280;35838;49.134;9.212;2023-06-14T05:25:56;99491.63;;;17.92;98.42
49945;BME280;35838;49.134;9.212;2023-06-14T05:27:30;99495.63;;;18.02;99.47
49945;BME280;35838;49.134;9.212;2023-06-14T05:29:06;99495.66;;;17.78;97.93
49945;BME280;35838;49.134;9.212;2023-06-14T05:30:39;99503.22;;;17.86;99.22
49945;BME280;35838;49.134;9.212;2023-06-14T05:32:13;99497.06;;;17.87;99.70
49945;BME280;35838;49.134;9.212;2023-06-14T05:33:49;99501.63;;;18.04;99.50
49945;BME280;35838;49.134;9.212;2023-06-14T05:35:23;99504.44;;;17.77;98.15
49945;BME280;35838;49.134;9.212;2023-06-14T05:36:57;99508.59;;;17.83;98.81
49945;BME280;35838;49.134;9.212;2023-06-14T05:38:30;99502.94;;;17.94;99.50
49945;BME280;35838;49.134;9.212;2023-06-14T05:40:05;99506.16;;;18.00;98.99
49945;BME280;35838;49.134;9.212;2023-06-14T05:41:39;99511.19;;;18.07;98.18
49945;BME280;35838;49.134;9.212;2023-06-14T05:43:13;99513.81;;;18.07;99.68
49945;BME280;35838;49.134;9.212;2023-06-14T05:44:46;99504.22;;;18.06;98.93
49945;BME280;35838;49.134;9.212;2023-06-14T05:46:20;99507.69;;;18.06;98.21
49945;BME280;35838;49.134;9.212;2023-06-14T05:47:56;99508.38;;;18.11;98.90
49945;BME280;35838;49.134;9.212;2023-06-14T05:49:32;99515.00;;;18.20;98.80
49945;BME280;35838;49.134;9.212;2023-06-14T05:51:06;99512.03;;;18.07;98.59
49945;BME280;35838;49.134;9.212;2023-06-14T05:52:40;99513.22;;;18.21;98.89
49945;BME280;35838;49.134;9.212;2023-06-14T05:54:14;99511.34;;;18.24;98.87
49945;BME280;35838;49.134;9.212;2023-06-14T05:55:48;99511.66;;;18.37;98.39
49945;BME280;35838;49.134;9.212;2023-06-14T05:57:22;99512.50;;;18.38;97.71
49945;BME280;35838;49.134;9.212;2023-06-14T05:58:56;99512.72;;;18.33;97.25
49945;BME280;35838;49.134;9.212;2023-06-14T06:00:29;99517.69;;;18.39;96.78
49945;BME280;35838;49.134;9.212;2023-06-14T06:02:03;99520.06;;;18.25;97.49
49945;BME280;35838;49.134;9.212;2023-06-14T06:03:37;99515.41;;;18.31;99.61
49945;BME280;35838;49.134;9.212;2023-06-14T06:05:13;99513.63;;;18.32;98.59
49945;BME280;35838;49.134;9.212;2023-06-14T06:06:47;99515.97;;;18.38;99.41
49945;BME280;35838;49.134;9.212;2023-06-14T06:08:20;99517.44;;;18.45;99.49
49945;BME280;35838;49.134;9.212;2023-06-14T06:09:54;99511.81;;;18.55;99.77
49945;BME280;35838;49.134;9.212;2023-06-14T06:11:28;99516.78;;;18.61;99.30
49945;BME280;35838;49.134;9.212;2023-06-14T06:13:01;99514.81;;;18.25;97.58
49945;BME280;35838;49.134;9.212;2023-06-14T06:14:35;99516.19;;;18.33;99.60
49945;BME280;35838;49.134;9.212;2023-06-14T06:16:08;99512.50;;;18.38;100.00
49945;BME280;35838;49.134;9.212;2023-06-14T06:17:47;99518.41;;;18.43;100.00
49945;BME280;35838;49.134;9.212;2023-06-14T06:19:22;99520.00;;;18.47;100.00
49945;BME280;35838;49.134;9.212;2023-06-14T06:20:58;99516.97;;;18.56;98.80
49945;BME280;35838;49.134;9.212;2023-06-14T06:22:33;99516.66;;;18.64;99.25
49945;BME280;35838;49.134;9.212;2023-06-14T06:24:05;99519.47;;;18.59;97.98
49945;BME280;35838;49.134;9.212;2023-06-14T06:25:38;99514.09;;;18.21;98.10
49945;BME280;35838;49.134;9.212;2023-06-14T06:27:12;99524.72;;;18.39;99.20
49945;BME280;35838;49.134;9.212;2023-06-14T06:28:46;99517.97;;;18.33;99.81
49945;BME280;35838;49.134;9.212;2023-06-14T06:30:21;99521.72;;;18.48;99.67
49945;BME280;35838;49.134;9.212;2023-06-14T06:31:55;99525.69;;;18.57;100.00
49945;BME280;35838;49.134;9.212;2023-06-14T06:33:28;99527.88;;;18.68;99.90
49945;BME280;35838;49.134;9.212;2023-06-14T06:35:02;99523.06;;;18.77;100.00
49945;BME280;35838;49.134;9.212;2023-06-14T06:36:39;99533.19;;;18.87;99.33
49945;BME280;35838;49.134;9.212;2023-06-14T06:38:13;99531.59;;;18.83;99.29
49945;BME280;35838;49.134;9.212;2023-06-14T06:39:46;99527.69;;;18.72;97.70
49945;BME280;35838;49.134;9.212;2023-06-14T06:41:20;99535.16;;;18.82;99.06
49945;BME280;35838;49.134;9.212;2023-06-14T06:42:53;99547.97;;;18.89;98.55
49945;BME280;35838;49.134;9.212;2023-06-14T06:44:27;99542.63;;;18.91;98.37
49945;BME280;35838;49.134;9.212;2023-06-14T06:46:01;99541.16;;;18.85;97.47
49945;BME280;35838;49.134;9.212;2023-06-14T06:47:35;99545.81;;;18.78;97.78
49945;BME280;35838;49.134;9.212;2023-06-14T06:49:08;99543.56;;;18.90;98.14
49945;BME280;35838;49.134;9.212;2023-06-14T06:50:42;99536.34;;;18.95;98.55
49945;BME280;35838;49.134;9.212;2023-06-14T06:52:18;99544.50;;;18.89;98.50
49945;BME280;35838;49.134;9.212;2023-06-14T06:53:52;99546.19;;;18.90;98.00
49945;BME280;35838;49.134;9.212;2023-06-14T06:55:26;99543.41;;;18.94;96.86
49945;BME280;35838;49.134;9.212;2023-06-14T06:57:00;99552.50;;;19.06;97.34
49945;BME280;35838;49.134;9.212;2023-06-14T06:58:34;99544.03;;;19.00;97.41
49945;BME280;35838;49.134;9.212;2023-06-14T07:00:08;99551.19;;;19.17;97.56
49945;BME280;35838;49.134;9.212;2023-06-14T07:01:43;99553.59;;;19.21;97.04
49945;BME280;35838;49.134;9.212;2023-06-14T07:03:16;99551.38;;;19.12;97.16
49945;BME280;35838;49.134;9.212;2023-06-14T07:04:50;99547.38;;;19.22;97.73
49945;BME280;35838;49.134;9.212;2023-06-14T07:06:24;99554.31;;;19.25;97.94
49945;BME280;35838;49.134;9.212;2023-06-14T07:08:00;99557.44;;;19.33;98.37
49945;BME280;35838;49.134;9.212;2023-06-14T07:09:34;99557.94;;;19.41;96.91
49945;BME280;35838;49.134;9.212;2023-06-14T07:11:07;99559.69;;;19.41;98.08
49945;BME280;35838;49.134;9.212;2023-06-14T07:12:41;99557.03;;;19.42;97.06
49945;BME280;35838;49.134;9.212;2023-06-14T07:14:14;99559.06;;;19.55;96.47
49945;BME280;35838;49.134;9.212;2023-06-14T07:15:48;99548.31;;;19.60;97.41
49945;BME280;35838;49.134;9.212;2023-06-14T07:17:24;99556.22;;;19.40;96.16
49945;BME280;35838;49.134;9.212;2023-06-14T07:18:57;99554.09;;;19.49;96.36
49945;BME280;35838;49.134;9.212;2023-06-14T07:20:31;99557.31;;;19.55;95.93
49945;BME280;35838;49.134;9.212;2023-06-14T07:22:05;99565.69;;;19.64;95.28
49945;BME280;35838;49.134;9.212;2023-06-14T07:23:41;99563.69;;;19.50;94.27
49945;BME280;35838;49.134;9.212;2023-06-14T07:25:14;99560.00;;;19.54;93.80
49945;BME280;35838;49.134;9.212;2023-06-14T07:26:50;99568.09;;;19.49;94.36
49945;BME280;35838;49.134;9.212;2023-06-14T07:28:24;99566.81;;;19.58;95.20
49945;BME280;35838;49.134;9.212;2023-06-14T07:29:57;99571.78;;;19.64;95.73
49945;BME280;35838;49.134;9.212;2023-06-14T07:31:31;99575.31;;;19.65;93.66
49945;BME280;35838;49.134;9.212;2023-06-14T07:33:05;99569.94;;;19.66;93.44
49945;BME280;35838;49.134;9.212;2023-06-14T07:34:39;99567.69;;;19.78;93.72
49945;BME280;35838;49.134;9.212;2023-06-14T07:36:12;99569.91;;;19.87;95.97
49945;BME280;35838;49.134;9.212;2023-06-14T07:37:46;99569.59;;;19.93;94.04
49945;BME280;35838;49.134;9.212;2023-06-14T07:39:23;99571.75;;;19.85;92.90
49945;BME280;35838;49.134;9.212;2023-06-14T07:40:56;99581.06;;;19.92;92.20
49945;BME280;35838;49.134;9.212;2023-06-14T07:42:30;99574.63;;;19.98;93.30
49945;BME280;35838;49.134;9.212;2023-06-14T07:44:03;99576.88;;;20.06;93.87
49945;BME280;35838;49.134;9.212;2023-06-14T07:45:37;99580.03;;;20.14;93.49
49945;BME280;35838;49.134;9.212;2023-06-14T07:47:11;99570.25;;;20.16;91.19
49945;BME280;35838;49.134;9.212;2023-06-14T07:48:44;99572.34;;;20.09;90.13
49945;BME280;35838;49.134;9.212;2023-06-14T07:50:18;99575.03;;;20.08;90.26
49945;BME280;35838;49.134;9.212;2023-06-14T07:51:52;99578.31;;;20.13;90.14
49945;BME280;35838;49.134;9.212;2023-06-14T07:53:25;99578.94;;;20.18;90.42
49945;BME280;35838;49.134;9.212;2023-06-14T07:55:02;99582.91;;;20.27;91.79
49945;BME280;35838;49.134;9.212;2023-06-14T07:56:36;99580.81;;;20.33;91.78
49945;BME280;35838;49.134;9.212;2023-06-14T07:58:09;99575.31;;;20.38;90.02
49945;BME280;35838;49.134;9.212;2023-06-14T07:59:43;99567.72;;;20.49;89.66
49945;BME280;35838;49.134;9.212;2023-06-14T08:01:17;99573.78;;;20.51;88.93
49945;BME280;35838;49.134;9.212;2023-06-14T08:02:50;99582.97;;;20.60;89.93
49945;BME280;35838;49.134;9.212;2023-06-14T08:04:29;99577.41;;;20.66;89.24
49945;BME280;35838;49.134;9.212;2023-06-14T08:06:02;99578.09;;;20.70;89.10
49945;BME280;35838;49.134;9.212;2023-06-14T08:07:36;99580.97;;;20.65;88.40
49945;BME280;35838;49.134;9.212;2023-06-14T08:09:10;99575.75;;;20.64;88.43
49945;BME280;35838;49.134;9.212;2023-06-14T08:10:46;99578.03;;;20.72;89.62
49945;BME280;35838;49.134;9.212;2023-06-14T08:12:20;99581.16;;;20.80;90.46
49945;BME280;35838;49.134;9.212;2023-06-14T08:13:53;99575.88;;;20.80;89.42
49945;BME280;35838;49.134;9.212;2023-06-14T08:15:27;99573.53;;;20.91;86.86
49945;BME280;35838;49.134;9.212;2023-06-14T08:17:01;99569.72;;;20.97;88.14
49945;BME280;35838;49.134;9.212;2023-06-14T08:18:34;99573.59;;;20.90;87.86